sensor_id;sensor_type;location;lat;lon;timestamp;pressure;altitude;pressure_sealevel;temperature;humidity
31585;BME280;18191;51.288;12.390;2022-12-24T00:03:57;49315.19;;;-144.47;100.00
31585;BME280;18191;51.288;12.390;2022-12-24T00:08:47;49257.50;;;-144.47;100.00
31585;BME280;18191;51.288;12.390;2022-12-24T00:13:38;49291.31;;;-144.47;99.60
31585;BME280;18191;51.288;12.390;2022-12-24T00:18:28;49291.31;;;-144.47;99.87
31585;BME280;18191;51.288;12.390;2022-12-24T00:23:18;49223.69;;;-144.47;99.69
31585;BME280;18191;51.288;12.390;2022-12-24T00:28:09;49219.72;;;-144.47;98.48
31585;BME280;18191;51.288;12.390;2022-12-24T00:32:59;49247.56;;;-144.47;98.02
31585;BME280;18191;51.288;12.390;2022-12-24T00:37:49;49271.44;;;-144.47;98.08
31585;BME280;18191;51.288;12.390;2022-12-24T00:42:39;49273.41;;;-144.47;99.23
31585;BME280;18191;51.288;12.390;2022-12-24T00:47:29;49275.41;;;-144.47;99.11
31585;BME280;18191;51.288;12.390;2022-12-24T00:52:20;49265.47;;;-144.47;99.31
31585;BME280;18191;51.288;12.390;2022-12-24T00:57:10;49269.44;;;-144.47;97.91
31585;BME280;18191;51.288;12.390;2022-12-24T01:02:00;49279.38;;;-144.47;99.47
31585;BME280;18191;51.288;12.390;2022-12-24T01:06:50;49271.44;;;-144.47;98.84
31585;BME280;18191;51.288;12.390;2022-12-24T01:11:40;49269.44;;;-144.47;97.48
31585;BME280;18191;51.288;12.390;2022-12-24T01:16:32;49295.31;;;-144.47;97.30
31585;BME280;18191;51.288;12.390;2022-12-24T01:21:22;49255.50;;;-144.47;97.71
31585;BME280;18191;51.288;12.390;2022-12-24T01:26:12;49311.22;;;-144.47;97.87
31585;BME280;18191;51.288;12.390;2022-12-24T01:31:08;49275.41;;;-144.47;97.13
31585;BME280;18191;51.288;12.390;2022-12-24T01:36:01;49299.28;;;-144.47;95.49
31585;BME280;18191;51.288;12.390;2022-12-24T01:40:52;49235.63;;;-144.47;97.05
31585;BME280;18191;51.288;12.390;2022-12-24T01:46:11;49263.47;;;-144.47;97.48
31585;BME280;18191;51.288;12.390;2022-12-24T01:55:53;49291.31;;;-144.47;95.31
31585;BME280;18191;51.288;12.390;2022-12-24T02:00:44;49239.59;;;-144.47;95.02
31585;BME280;18191;51.288;12.390;2022-12-24T02:05:47;49295.31;;;-144.47;94.81
31585;BME280;18191;51.288;12.390;2022-12-24T02:10:38;49275.41;;;-144.47;94.29
31585;BME280;18191;51.288;12.390;2022-12-24T02:15:30;49295.31;;;-144.47;93.29
31585;BME280;18191;51.288;12.390;2022-12-24T02:20:29;49307.25;;;-144.47;91.34
31585;BME280;18191;51.288;12.390;2022-12-24T02:25:31;49271.44;;;-144.47;92.83
31585;BME280;18191;51.288;12.390;2022-12-24T02:35:19;49281.38;;;-144.47;91.18
31585;BME280;18191;51.288;12.390;2022-12-24T02:40:12;49227.66;;;-144.47;90.06
31585;BME280;18191;51.288;12.390;2022-12-24T02:45:05;49263.47;;;-144.47;91.07
31585;BME280;18191;51.288;12.390;2022-12-24T02:49:56;49245.56;;;-144.47;91.13
31585;BME280;18191;51.288;12.390;2022-12-24T02:54:46;49233.63;;;-144.47;91.40
31585;BME280;18191;51.288;12.390;2022-12-24T02:59:42;49263.47;;;-144.47;90.55
31585;BME280;18191;51.288;12.390;2022-12-24T03:14:38;49275.41;;;-144.47;88.76
31585;BME280;18191;51.288;12.390;2022-12-24T03:19:29;49239.59;;;-144.47;88.47
31585;BME280;18191;51.288;12.390;2022-12-24T03:24:20;49231.63;;;-144.47;87.84
31585;BME280;18191;51.288;12.390;2022-12-24T03:29:10;49243.56;;;-144.47;87.48
31585;BME280;18191;51.288;12.390;2022-12-24T03:34:00;49223.69;;;-144.47;87.78
31585;BME280;18191;51.288;12.390;2022-12-24T03:38:50;49257.50;;;-144.47;87.57
31585;BME280;18191;51.288;12.390;2022-12-24T03:43:41;49275.41;;;-144.47;86.93
31585;BME280;18191;51.288;12.390;2022-12-24T03:48:32;49271.44;;;-144.47;86.06
31585;BME280;18191;51.288;12.390;2022-12-24T03:53:22;49293.31;;;-144.47;86.11
31585;BME280;18191;51.288;12.390;2022-12-24T03:58:13;49293.31;;;-144.47;84.75
31585;BME280;18191;51.288;12.390;2022-12-24T04:03:03;49235.63;;;-144.47;84.87
31585;BME280;18191;51.288;12.390;2022-12-24T04:07:53;49255.50;;;-144.47;84.76
31585;BME280;18191;51.288;12.390;2022-12-24T04:12:43;49211.75;;;-144.47;84.59
31585;BME280;18191;51.288;12.390;2022-12-24T04:17:33;49255.50;;;-144.47;83.90
31585;BME280;18191;51.288;12.390;2022-12-24T04:22:23;49231.63;;;-144.47;84.17
31585;BME280;18191;51.288;12.390;2022-12-24T04:27:14;49283.38;;;-144.47;83.13
31585;BME280;18191;51.288;12.390;2022-12-24T04:32:04;49237.59;;;-144.47;83.19
31585;BME280;18191;51.288;12.390;2022-12-24T04:36:55;49273.41;;;-144.47;83.16
31585;BME280;18191;51.288;12.390;2022-12-24T04:41:45;49231.63;;;-144.47;84.39
31585;BME280;18191;51.288;12.390;2022-12-24T04:46:35;49261.47;;;-144.47;82.92
31585;BME280;18191;51.288;12.390;2022-12-24T04:51:25;49287.34;;;-144.47;81.77
31585;BME280;18191;51.288;12.390;2022-12-24T04:56:18;49219.72;;;-144.47;82.93
31585;BME280;18191;51.288;12.390;2022-12-24T05:01:11;49191.84;;;-144.47;81.30
31585;BME280;18191;51.288;12.390;2022-12-24T05:06:02;49263.47;;;-144.47;80.99
31585;BME280;18191;51.288;12.390;2022-12-24T05:10:55;49239.59;;;-144.47;81.77
31585;BME280;18191;51.288;12.390;2022-12-24T05:15:45;49263.47;;;-144.47;80.78
31585;BME280;18191;51.288;12.390;2022-12-24T05:20:35;49247.56;;;-144.47;81.12
31585;BME280;18191;51.288;12.390;2022-12-24T05:25:32;49295.31;;;-144.47;81.54
31585;BME280;18191;51.288;12.390;2022-12-24T05:30:43;49247.56;;;-144.47;80.79
31585;BME280;18191;51.288;12.390;2022-12-24T05:35:33;49263.47;;;-144.47;80.43
31585;BME280;18191;51.288;12.390;2022-12-24T05:40:24;49215.72;;;-144.47;81.85
31585;BME280;18191;51.288;12.390;2022-12-24T05:45:14;49241.59;;;-144.47;82.04
31585;BME280;18191;51.288;12.390;2022-12-24T05:50:04;49251.53;;;-144.47;82.00
31585;BME280;18191;51.288;12.390;2022-12-24T05:54:54;49215.72;;;-144.47;82.29
31585;BME280;18191;51.288;12.390;2022-12-24T05:59:45;49243.56;;;-144.47;81.19
31585;BME280;18191;51.288;12.390;2022-12-24T06:04:35;49239.59;;;-144.47;82.52
31585;BME280;18191;51.288;12.390;2022-12-24T06:09:25;49235.63;;;-144.47;80.36
31585;BME280;18191;51.288;12.390;2022-12-24T06:14:15;49203.78;;;-144.47;81.63
31585;BME280;18191;51.288;12.390;2022-12-24T06:19:05;49267.44;;;-144.47;80.71
31585;BME280;18191;51.288;12.390;2022-12-24T06:23:55;49235.63;;;-144.47;80.85
31585;BME280;18191;51.288;12.390;2022-12-24T06:28:46;49279.38;;;-144.47;80.67
31585;BME280;18191;51.288;12.390;2022-12-24T06:33:36;49223.69;;;-144.47;80.40
31585;BME280;18191;51.288;12.390;2022-12-24T06:38:28;49263.47;;;-144.47;79.82
31585;BME280;18191;51.288;12.390;2022-12-24T06:43:18;49235.63;;;-144.47;80.34
31585;BME280;18191;51.288;12.390;2022-12-24T06:48:08;49283.38;;;-144.47;80.85
31585;BME280;18191;51.288;12.390;2022-12-24T06:52:59;49275.41;;;-144.47;81.61
31585;BME280;18191;51.288;12.390;2022-12-24T06:57:49;49291.31;;;-144.47;79.76
31585;BME280;18191;51.288;12.390;2022-12-24T07:02:40;49213.75;;;-144.47;80.25
31585;BME280;18191;51.288;12.390;2022-12-24T07:07:30;49231.63;;;-144.47;80.74
31585;BME280;18191;51.288;12.390;2022-12-24T07:12:20;49271.44;;;-144.47;81.16
31585;BME280;18191;51.288;12.390;2022-12-24T07:17:11;49287.34;;;-144.47;81.43
31585;BME280;18191;51.288;12.390;2022-12-24T07:22:01;49291.31;;;-144.47;82.37
31585;BME280;18191;51.288;12.390;2022-12-24T07:26:51;49211.75;;;-144.47;83.24
31585;BME280;18191;51.288;12.390;2022-12-24T07:31:41;49251.53;;;-144.47;83.53
31585;BME280;18191;51.288;12.390;2022-12-24T07:36:32;49271.44;;;-144.47;84.50
31585;BME280;18191;51.288;12.390;2022-12-24T07:41:22;49255.50;;;-144.47;84.40
31585;BME280;18191;51.288;12.390;2022-12-24T07:46:12;49239.59;;;-144.47;84.39
31585;BME280;18191;51.288;12.390;2022-12-24T07:51:02;49271.44;;;-144.47;84.58
31585;BME280;18191;51.288;12.390;2022-12-24T07:55:53;49227.66;;;-144.47;84.32
31585;BME280;18191;51.288;12.390;2022-12-24T08:00:43;49267.44;;;-144.47;83.78
31585;BME280;18191;51.288;12.390;2022-12-24T08:05:34;49243.56;;;-144.47;81.75
31585;BME280;18191;51.288;12.390;2022-12-24T08:10:24;49271.44;;;-144.47;81.84
31585;BME280;18191;51.288;12.390;2022-12-24T08:15:14;49267.44;;;-144.47;81.45
31585;BME280;18191;51.288;12.390;2022-12-24T08:20:05;49249.53;;;-144.47;79.74
31585;BME280;18191;51.288;12.390;2022-12-24T08:24:55;49215.72;;;-144.47;78.75
31585;BME280;18191;51.288;12.390;2022-12-24T08:29:45;49307.25;;;-144.47;77.43
31585;BME280;18191;51.288;12.390;2022-12-24T08:34:35;49299.28;;;-144.47;76.74
31585;BME280;18191;51.288;12.390;2022-12-24T08:39:26;49275.41;;;-144.47;77.08
31585;BME280;18191;51.288;12.390;2022-12-24T08:44:16;49243.56;;;-144.47;76.63
31585;BME280;18191;51.288;12.390;2022-12-24T08:49:06;49255.50;;;-144.47;76.47
31585;BME280;18191;51.288;12.390;2022-12-24T08:53:56;49243.56;;;-144.47;76.34
31585;BME280;18191;51.288;12.390;2022-12-24T08:58:47;49287.34;;;-144.47;77.15
31585;BME280;18191;51.288;12.390;2022-12-24T09:03:37;49255.50;;;-144.47;76.40
31585;BME280;18191;51.288;12.390;2022-12-24T09:08:28;49209.75;;;-144.47;76.99
31585;BME280;18191;51.288;12.390;2022-12-24T09:13:18;49283.38;;;-144.47;76.15
31585;BME280;18191;51.288;12.390;2022-12-24T09:18:08;49237.59;;;-144.47;76.07
31585;BME280;18191;51.288;12.390;2022-12-24T09:22:59;49267.44;;;-144.47;75.64
31585;BME280;18191;51.288;12.390;2022-12-24T09:27:49;49235.63;;;-144.47;75.23
31585;BME280;18191;51.288;12.390;2022-12-24T09:32:39;49215.72;;;-144.47;74.11
31585;BME280;18191;51.288;12.390;2022-12-24T09:37:30;49249.53;;;-144.47;72.76
31585;BME280;18191;51.288;12.390;2022-12-24T09:42:29;49263.47;;;-144.47;73.04
31585;BME280;18191;51.288;12.390;2022-12-24T09:47:24;49229.66;;;-144.47;73.93
31585;BME280;18191;51.288;12.390;2022-12-24T09:52:19;49245.56;;;-144.47;73.94
31585;BME280;18191;51.288;12.390;2022-12-24T09:57:14;49243.56;;;-144.47;73.46
31585;BME280;18191;51.288;12.390;2022-12-24T10:02:18;49231.63;;;-144.47;74.32
31585;BME280;18191;51.288;12.390;2022-12-24T10:07:17;49221.69;;;-144.47;72.23
31585;BME280;18191;51.288;12.390;2022-12-24T10:12:20;49201.81;;;-144.47;71.74
31585;BME280;18191;51.288;12.390;2022-12-24T10:17:21;49223.69;;;-144.47;72.64
31585;BME280;18191;51.288;12.390;2022-12-24T10:22:27;49223.69;;;-144.47;74.28
31585;BME280;18191;51.288;12.390;2022-12-24T10:38:15;49207.78;;;-144.47;75.33
31585;BME280;18191;51.288;12.390;2022-12-24T10:43:15;49219.72;;;-144.47;75.62
31585;BME280;18191;51.288;12.390;2022-12-24T10:48:06;49257.50;;;-144.47;75.81
31585;BME280;18191;51.288;12.390;2022-12-24T10:53:00;49231.63;;;-144.47;76.11
31585;BME280;18191;51.288;12.390;2022-12-24T10:58:06;49235.63;;;-144.47;74.93
31585;BME280;18191;51.288;12.390;2022-12-24T11:08:20;49229.66;;;-144.47;75.64
31585;BME280;18191;51.288;12.390;2022-12-24T11:18:16;49213.75;;;-144.47;74.66
31585;BME280;18191;51.288;12.390;2022-12-24T11:23:12;49267.44;;;-144.47;75.60
31585;BME280;18191;51.288;12.390;2022-12-24T11:28:12;49251.53;;;-144.47;73.63
31585;BME280;18191;51.288;12.390;2022-12-24T11:42:52;49203.78;;;-144.47;72.05
31585;BME280;18191;51.288;12.390;2022-12-24T11:47:48;49162.00;;;-144.47;70.38
31585;BME280;18191;51.288;12.390;2022-12-24T11:52:38;49201.81;;;-144.47;68.23
31585;BME280;18191;51.288;12.390;2022-12-24T11:57:33;49215.72;;;-144.47;69.28
31585;BME280;18191;51.288;12.390;2022-12-24T12:02:31;49223.69;;;-144.47;68.85
31585;BME280;18191;51.288;12.390;2022-12-24T12:07:33;49195.84;;;-144.47;70.67
31585;BME280;18191;51.288;12.390;2022-12-24T12:12:28;49215.72;;;-144.47;70.65
31585;BME280;18191;51.288;12.390;2022-12-24T12:22:19;49223.69;;;-144.47;70.80
31585;BME280;18191;51.288;12.390;2022-12-24T12:32:11;49191.84;;;-144.47;69.98
31585;BME280;18191;51.288;12.390;2022-12-24T12:37:20;49193.84;;;-144.47;69.56
31585;BME280;18191;51.288;12.390;2022-12-24T12:42:15;49245.56;;;-144.47;71.34
31585;BME280;18191;51.288;12.390;2022-12-24T12:52:34;49223.69;;;-144.47;69.95
31585;BME280;18191;51.288;12.390;2022-12-24T12:57:32;49215.72;;;-144.47;69.18
31585;BME280;18191;51.288;12.390;2022-12-24T13:02:40;49233.63;;;-144.47;70.17
31585;BME280;18191;51.288;12.390;2022-12-24T13:07:50;49211.75;;;-144.47;69.40
31585;BME280;18191;51.288;12.390;2022-12-24T13:27:48;49235.63;;;-144.47;72.38
31585;BME280;18191;51.288;12.390;2022-12-24T13:32:48;49247.56;;;-144.47;74.20
31585;BME280;18191;51.288;12.390;2022-12-24T13:37:39;49219.72;;;-144.47;74.80
31585;BME280;18191;51.288;12.390;2022-12-24T13:42:49;49197.81;;;-144.47;74.23
31585;BME280;18191;51.288;12.390;2022-12-24T13:47:39;49229.66;;;-144.47;76.21
31585;BME280;18191;51.288;12.390;2022-12-24T13:52:31;49223.69;;;-144.47;75.95
31585;BME280;18191;51.288;12.390;2022-12-24T13:57:31;49219.72;;;-144.47;76.46
31585;BME280;18191;51.288;12.390;2022-12-24T14:02:22;49219.72;;;-144.47;75.79
31585;BME280;18191;51.288;12.390;2022-12-24T14:07:12;49235.63;;;-144.47;76.11
31585;BME280;18191;51.288;12.390;2022-12-24T14:22:19;49219.72;;;-144.47;75.44
31585;BME280;18191;51.288;12.390;2022-12-24T14:27:18;49179.91;;;-144.47;75.99
31585;BME280;18191;51.288;12.390;2022-12-24T14:32:13;49223.69;;;-144.47;74.85
31585;BME280;18191;51.288;12.390;2022-12-24T14:37:04;49191.84;;;-144.47;75.71
31585;BME280;18191;51.288;12.390;2022-12-24T14:47:20;49239.59;;;-144.47;74.45
31585;BME280;18191;51.288;12.390;2022-12-24T14:52:23;49233.63;;;-144.47;75.82
31585;BME280;18191;51.288;12.390;2022-12-24T14:57:20;49237.59;;;-144.47;75.05
31585;BME280;18191;51.288;12.390;2022-12-24T15:07:19;49239.59;;;-144.47;76.96
31585;BME280;18191;51.288;12.390;2022-12-24T15:12:10;49209.75;;;-144.47;77.85
31585;BME280;18191;51.288;12.390;2022-12-24T15:17:01;49207.78;;;-144.47;79.15
31585;BME280;18191;51.288;12.390;2022-12-24T15:21:52;49239.59;;;-144.47;79.28
31585;BME280;18191;51.288;12.390;2022-12-24T15:26:43;49251.53;;;-144.47;80.69
31585;BME280;18191;51.288;12.390;2022-12-24T15:31:34;49191.84;;;-144.47;80.26
31585;BME280;18191;51.288;12.390;2022-12-24T15:36:26;49207.78;;;-144.47;79.25
31585;BME280;18191;51.288;12.390;2022-12-24T15:41:18;49221.69;;;-144.47;78.36
31585;BME280;18191;51.288;12.390;2022-12-24T15:46:16;49217.72;;;-144.47;77.72
31585;BME280;18191;51.288;12.390;2022-12-24T15:51:06;49227.66;;;-144.47;78.78
31585;BME280;18191;51.288;12.390;2022-12-24T16:06:08;49215.72;;;-144.47;80.12
31585;BME280;18191;51.288;12.390;2022-12-24T16:11:19;49269.44;;;-144.47;80.53
31585;BME280;18191;51.288;12.390;2022-12-24T16:16:11;49251.53;;;-144.47;82.54
31585;BME280;18191;51.288;12.390;2022-12-24T16:21:03;49245.56;;;-144.47;82.41
31585;BME280;18191;51.288;12.390;2022-12-24T16:25:54;49279.38;;;-144.47;83.18
31585;BME280;18191;51.288;12.390;2022-12-24T16:30:44;49247.56;;;-144.47;84.47
31585;BME280;18191;51.288;12.390;2022-12-24T16:35:35;49259.50;;;-144.47;83.29
31585;BME280;18191;51.288;12.390;2022-12-24T16:40:27;49265.47;;;-144.47;83.66
31585;BME280;18191;51.288;12.390;2022-12-24T16:45:17;49255.50;;;-144.47;82.83
31585;BME280;18191;51.288;12.390;2022-12-24T16:50:12;49215.72;;;-144.47;84.34
31585;BME280;18191;51.288;12.390;2022-12-24T16:55:03;49259.50;;;-144.47;85.46
31585;BME280;18191;51.288;12.390;2022-12-24T16:59:53;49255.50;;;-144.47;84.79
31585;BME280;18191;51.288;12.390;2022-12-24T17:04:44;49269.44;;;-144.47;85.08
31585;BME280;18191;51.288;12.390;2022-12-24T17:09:34;49223.69;;;-144.47;85.86
31585;BME280;18191;51.288;12.390;2022-12-24T17:14:24;49221.69;;;-144.47;87.63
31585;BME280;18191;51.288;12.390;2022-12-24T17:19:15;49253.53;;;-144.47;88.01
31585;BME280;18191;51.288;12.390;2022-12-24T17:24:05;49255.50;;;-144.47;87.98
31585;BME280;18191;51.288;12.390;2022-12-24T17:28:56;49227.66;;;-144.47;88.01
31585;BME280;18191;51.288;12.390;2022-12-24T17:33:52;49231.63;;;-144.47;88.19
31585;BME280;18191;51.288;12.390;2022-12-24T17:38:43;49247.56;;;-144.47;88.64
31585;BME280;18191;51.288;12.390;2022-12-24T17:43:33;49277.41;;;-144.47;88.68
31585;BME280;18191;51.288;12.390;2022-12-24T17:48:24;49207.78;;;-144.47;89.51
31585;BME280;18191;51.288;12.390;2022-12-24T17:53:14;49219.72;;;-144.47;89.79
31585;BME280;18191;51.288;12.390;2022-12-24T17:58:04;49231.63;;;-144.47;90.24
31585;BME280;18191;51.288;12.390;2022-12-24T18:02:56;49271.44;;;-144.47;89.41
31585;BME280;18191;51.288;12.390;2022-12-24T18:07:47;49263.47;;;-144.47;89.89
31585;BME280;18191;51.288;12.390;2022-12-24T18:12:37;49255.50;;;-144.47;89.84
31585;BME280;18191;51.288;12.390;2022-12-24T18:17:27;49235.63;;;-144.47;90.26
31585;BME280;18191;51.288;12.390;2022-12-24T18:22:17;49255.50;;;-144.47;90.54
31585;BME280;18191;51.288;12.390;2022-12-24T18:27:07;49235.63;;;-144.47;91.65
31585;BME280;18191;51.288;12.390;2022-12-24T18:31:58;49243.56;;;-144.47;91.63
31585;BME280;18191;51.288;12.390;2022-12-24T18:36:48;49235.63;;;-144.47;91.51
31585;BME280;18191;51.288;12.390;2022-12-24T18:41:38;49239.59;;;-144.47;91.91
31585;BME280;18191;51.288;12.390;2022-12-24T18:46:29;49247.56;;;-144.47;93.13
31585;BME280;18191;51.288;12.390;2022-12-24T18:51:21;49231.63;;;-144.47;93.32
31585;BME280;18191;51.288;12.390;2022-12-24T18:56:12;49243.56;;;-144.47;93.94
31585;BME280;18191;51.288;12.390;2022-12-24T19:01:13;49299.28;;;-144.47;95.52
31585;BME280;18191;51.288;12.390;2022-12-24T19:06:03;49243.56;;;-144.47;95.89
31585;BME280;18191;51.288;12.390;2022-12-24T19:10:54;49251.53;;;-144.47;95.70
31585;BME280;18191;51.288;12.390;2022-12-24T19:15:44;49281.38;;;-144.47;97.27
31585;BME280;18191;51.288;12.390;2022-12-24T19:20:38;49271.44;;;-144.47;96.79
31585;BME280;18191;51.288;12.390;2022-12-24T19:25:28;49283.38;;;-144.47;96.57
31585;BME280;18191;51.288;12.390;2022-12-24T19:30:18;49277.41;;;-144.47;96.69
31585;BME280;18191;51.288;12.390;2022-12-24T19:35:08;49251.53;;;-144.47;95.88
31585;BME280;18191;51.288;12.390;2022-12-24T19:40:00;49249.53;;;-144.47;96.63
31585;BME280;18191;51.288;12.390;2022-12-24T19:44:51;49279.38;;;-144.47;96.44
31585;BME280;18191;51.288;12.390;2022-12-24T19:49:41;49257.50;;;-144.47;96.51
31585;BME280;18191;51.288;12.390;2022-12-24T19:54:31;49283.38;;;-144.47;97.04
31585;BME280;18191;51.288;12.390;2022-12-24T19:59:21;49265.47;;;-144.47;96.21
31585;BME280;18191;51.288;12.390;2022-12-24T20:04:11;49263.47;;;-144.47;96.69
31585;BME280;18191;51.288;12.390;2022-12-24T20:09:04;49217.72;;;-144.47;96.87
31585;BME280;18191;51.288;12.390;2022-12-24T20:13:58;49243.56;;;-144.47;96.68
31585;BME280;18191;51.288;12.390;2022-12-24T20:18:50;49203.78;;;-144.47;96.80
31585;BME280;18191;51.288;12.390;2022-12-24T20:23:40;49235.63;;;-144.47;97.25
31585;BME280;18191;51.288;12.390;2022-12-24T20:28:31;49263.47;;;-144.47;97.00
31585;BME280;18191;51.288;12.390;2022-12-24T20:33:22;49241.59;;;-144.47;96.49
31585;BME280;18191;51.288;12.390;2022-12-24T20:38:12;49235.63;;;-144.47;96.87
31585;BME280;18191;51.288;12.390;2022-12-24T20:43:02;49233.63;;;-144.47;97.18
31585;BME280;18191;51.288;12.390;2022-12-24T20:47:53;49285.34;;;-144.47;97.40
31585;BME280;18191;51.288;12.390;2022-12-24T20:52:43;49275.41;;;-144.47;97.40
31585;BME280;18191;51.288;12.390;2022-12-24T20:57:33;49279.38;;;-144.47;97.20
31585;BME280;18191;51.288;12.390;2022-12-24T21:02:23;49249.53;;;-144.47;96.86
31585;BME280;18191;51.288;12.390;2022-12-24T21:07:13;49231.63;;;-144.47;97.08
31585;BME280;18191;51.288;12.390;2022-12-24T21:12:04;49237.59;;;-144.47;96.56
31585;BME280;18191;51.288;12.390;2022-12-24T21:17:12;49219.72;;;-144.47;96.37
31585;BME280;18191;51.288;12.390;2022-12-24T21:22:02;49251.53;;;-144.47;97.18
31585;BME280;18191;51.288;12.390;2022-12-24T21:26:53;49235.63;;;-144.47;96.55
31585;BME280;18191;51.288;12.390;2022-12-24T21:31:43;49243.56;;;-144.47;97.46
31585;BME280;18191;51.288;12.390;2022-12-24T21:36:33;49239.59;;;-144.47;97.34
31585;BME280;18191;51.288;12.390;2022-12-24T21:41:23;49263.47;;;-144.47;97.19
31585;BME280;18191;51.288;12.390;2022-12-24T21:46:16;49255.50;;;-144.47;97.12
31585;BME280;18191;51.288;12.390;2022-12-24T21:51:08;49235.63;;;-144.47;97.07
31585;BME280;18191;51.288;12.390;2022-12-24T21:55:58;49251.53;;;-144.47;97.01
31585;BME280;18191;51.288;12.390;2022-12-24T22:00:56;49247.56;;;-144.47;97.45
31585;BME280;18191;51.288;12.390;2022-12-24T22:05:46;49271.44;;;-144.47;97.06
31585;BME280;18191;51.288;12.390;2022-12-24T22:10:36;49223.69;;;-144.47;97.31
31585;BME280;18191;51.288;12.390;2022-12-24T22:15:46;49255.50;;;-144.47;97.48
31585;BME280;18191;51.288;12.390;2022-12-24T22:20:37;49229.66;;;-144.47;97.01
31585;BME280;18191;51.288;12.390;2022-12-24T22:25:28;49255.50;;;-144.47;96.85
31585;BME280;18191;51.288;12.390;2022-12-24T22:30:18;49217.72;;;-144.47;97.57
31585;BME280;18191;51.288;12.390;2022-12-24T22:35:08;49247.56;;;-144.47;97.81
31585;BME280;18191;51.288;12.390;2022-12-24T22:39:59;49207.78;;;-144.47;97.16
31585;BME280;18191;51.288;12.390;2022-12-24T22:44:49;49247.56;;;-144.47;96.86
31585;BME280;18191;51.288;12.390;2022-12-24T22:49:39;49275.41;;;-144.47;96.40
31585;BME280;18191;51.288;12.390;2022-12-24T22:54:29;49229.66;;;-144.47;97.10
31585;BME280;18191;51.288;12.390;2022-12-24T22:59:20;49247.56;;;-144.47;97.37
31585;BME280;18191;51.288;12.390;2022-12-24T23:04:10;49263.47;;;-144.47;97.31
31585;BME280;18191;51.288;12.390;2022-12-24T23:09:02;49227.66;;;-144.47;97.24
31585;BME280;18191;51.288;12.390;2022-12-24T23:13:53;49227.66;;;-144.47;96.95
31585;BME280;18191;51.288;12.390;2022-12-24T23:19:03;49259.50;;;-144.47;97.07
31585;BME280;18191;51.288;12.390;2022-12-24T23:23:57;49235.63;;;-144.47;97.45
31585;BME280;18191;51.288;12.390;2022-12-24T23:28:48;49231.63;;;-144.47;97.45
31585;BME280;18191;51.288;12.390;2022-12-24T23:33:38;49219.72;;;-144.47;97.57
31585;BME280;18191;51.288;12.390;2022-12-24T23:38:28;49247.56;;;-144.47;97.64
31585;BME280;18191;51.288;12.390;2022-12-24T23:43:18;49219.72;;;-144.47;97.83
31585;BME280;18191;51.288;12.390;2022-12-24T23:48:08;49239.59;;;-144.47;97.60
31585;BME280;18191;51.288;12.390;2022-12-24T23:52:59;49203.78;;;-144.47;97.70
31585;BME280;18191;51.288;12.390;2022-12-24T23:57:49;49219.72;;;-144.47;97.62
